createdAt,value
2018-01-19T00:00:55.751Z,11.97
2018-01-19T00:03:23.313Z,10.83
2018-01-19T00:05:50.905Z,11.87
2018-01-19T00:08:18.922Z,10.93
2018-01-19T00:10:46.489Z,10.60
2018-01-19T00:13:14.452Z,11.47
2018-01-19T00:15:42.018Z,11.20
2018-01-19T00:18:09.607Z,11.47
2018-01-19T00:20:37.242Z,12.60
2018-01-19T00:23:04.802Z,11.17
2018-01-19T00:25:32.465Z,12.03
2018-01-19T00:28:00.330Z,11.57
2018-01-19T00:30:27.910Z,12.03
2018-01-19T00:32:55.861Z,11.77
2018-01-19T00:35:23.421Z,12.03
2018-01-19T00:37:51.045Z,11.90
2018-01-19T00:40:18.618Z,12.90
2018-01-19T00:42:46.178Z,12.90
2018-01-19T00:45:14.087Z,13.07
2018-01-19T00:47:41.650Z,12.40
2018-01-19T00:50:09.227Z,12.70
2018-01-19T00:52:37.172Z,13.33
2018-01-19T00:55:04.743Z,13.43
2018-01-19T00:57:32.524Z,13.20
2018-01-19T01:00:00.341Z,12.30
2018-01-19T01:02:27.917Z,12.77
2018-01-19T01:04:55.524Z,13.10
2018-01-19T01:07:23.085Z,13.73
2018-01-19T01:09:51.029Z,13.20
2018-01-19T01:12:18.600Z,12.67
2018-01-19T01:14:46.191Z,13.30
2018-01-19T01:17:13.863Z,13.40
2018-01-19T01:19:41.469Z,13.17
2018-01-19T01:22:09.345Z,13.00
2018-01-19T01:24:37.205Z,12.50
2018-01-19T01:27:04.845Z,13.60
2018-01-19T01:29:32.458Z,12.10
2018-01-19T01:32:00.085Z,12.17
2018-01-19T01:34:27.703Z,12.37
2018-01-19T01:36:55.262Z,12.90
2018-01-19T01:39:22.869Z,11.93
2018-01-19T01:41:50.419Z,12.57
2018-01-19T01:44:18.083Z,11.90
2018-01-19T01:46:45.952Z,11.87
2018-01-19T01:49:13.505Z,12.23
2018-01-19T01:51:41.135Z,11.60
2018-01-19T01:54:09.047Z,11.40
2018-01-19T01:56:36.688Z,10.97
2018-01-19T01:59:04.260Z,11.10
2018-01-19T02:01:31.828Z,11.40
2018-01-19T02:03:59.405Z,11.63
2018-01-19T02:06:26.967Z,10.90
2018-01-19T02:08:54.561Z,10.23
2018-01-19T02:11:22.133Z,10.90
2018-01-19T02:13:50.052Z,10.03
2018-01-19T02:16:17.761Z,10.80
2018-01-19T02:18:45.357Z,10.40
2018-01-19T02:21:12.941Z,10.00
2018-01-19T02:23:40.538Z,9.63
2018-01-19T02:26:08.095Z,9.70
2018-01-19T02:28:35.689Z,9.57
2018-01-19T02:31:03.297Z,9.87
2018-01-19T02:33:30.894Z,9.90
2018-01-19T02:35:58.445Z,9.80
2018-01-19T02:38:26.045Z,9.90
2018-01-19T02:40:53.593Z,9.93
2018-01-19T02:43:21.188Z,10.00
2018-01-19T02:45:48.816Z,10.37
2018-01-19T02:48:16.385Z,9.50
2018-01-19T02:50:44.005Z,9.97
2018-01-19T02:53:11.601Z,9.60
2018-01-19T02:55:39.280Z,10.00
2018-01-19T02:58:06.849Z,10.07
2018-01-19T03:00:34.453Z,9.80
2018-01-19T03:03:02.203Z,9.30
2018-01-19T03:05:29.794Z,9.87
2018-01-19T03:07:57.403Z,10.33
2018-01-19T03:10:24.933Z,9.87
2018-01-19T03:12:52.504Z,10.77
2018-01-19T03:15:20.102Z,11.20
2018-01-19T03:17:47.681Z,10.10
2018-01-19T03:20:15.321Z,10.40
2018-01-19T03:22:42.922Z,10.53
2018-01-19T03:25:10.495Z,10.20
2018-01-19T03:27:38.044Z,10.00
2018-01-19T03:30:05.616Z,9.93
2018-01-19T03:32:33.193Z,10.90
2018-01-19T03:35:00.754Z,11.33
2018-01-19T03:37:28.333Z,10.13
2018-01-19T03:39:55.889Z,10.33
2018-01-19T03:42:23.472Z,10.97
2018-01-19T03:44:51.114Z,11.17
2018-01-19T03:47:18.992Z,10.67
2018-01-19T03:49:46.556Z,10.10
2018-01-19T03:52:14.134Z,9.93
2018-01-19T03:54:41.696Z,9.87
2018-01-19T03:57:09.296Z,10.50
2018-01-19T03:59:36.908Z,10.00
2018-01-19T04:02:04.780Z,10.43
2018-01-19T04:04:32.370Z,10.50
2018-01-19T04:06:59.976Z,10.43
2018-01-19T04:09:27.544Z,11.47
2018-01-19T04:11:55.100Z,10.90
2018-01-19T04:14:23.031Z,10.90
2018-01-19T04:16:50.586Z,11.03
2018-01-19T04:19:18.412Z,10.30
2018-01-19T04:21:46.014Z,10.30
2018-01-19T04:24:13.591Z,10.63
2018-01-19T04:26:41.157Z,10.77
2018-01-19T04:29:08.748Z,10.50
2018-01-19T04:34:10.143Z,12.07
2018-01-19T04:36:37.741Z,10.70
2018-01-19T04:39:05.335Z,11.17
2018-01-19T04:41:32.941Z,10.73
2018-01-19T04:44:00.533Z,10.73
2018-01-19T04:46:28.134Z,10.53
2018-01-19T04:48:55.748Z,10.43
2018-01-19T04:51:23.306Z,10.03
2018-01-19T04:53:50.867Z,10.23
2018-01-19T04:56:18.468Z,10.53
2018-01-19T04:58:46.359Z,10.57
2018-01-19T05:01:13.957Z,10.50
2018-01-19T05:03:41.556Z,10.50
2018-01-19T05:06:09.124Z,10.10
2018-01-19T05:08:36.694Z,11.00
2018-01-19T05:11:04.295Z,10.70
2018-01-19T05:13:31.863Z,10.20
2018-01-19T05:15:59.682Z,10.17
2018-01-19T05:18:27.283Z,10.77
2018-01-19T05:20:54.880Z,11.03
2018-01-19T05:23:22.449Z,10.87
2018-01-19T05:25:50.060Z,10.80
2018-01-19T05:28:17.622Z,10.63
2018-01-19T05:30:45.219Z,10.60
2018-01-19T05:33:12.815Z,10.60
2018-01-19T05:35:40.439Z,10.60
2018-01-19T05:38:07.980Z,11.03
2018-01-19T05:40:35.602Z,11.20
2018-01-19T05:43:03.258Z,10.47
2018-01-19T05:45:30.828Z,10.53
2018-01-19T05:47:58.430Z,10.40
2018-01-19T05:50:26.017Z,10.60
2018-01-19T05:52:53.649Z,10.53
2018-01-19T05:55:21.273Z,10.57
2018-01-19T05:57:48.846Z,10.70
2018-01-19T06:00:16.439Z,11.10
2018-01-19T06:02:44.048Z,11.10
2018-01-19T06:05:11.649Z,11.30
2018-01-19T06:07:39.207Z,10.87
2018-01-19T06:10:06.776Z,10.40
2018-01-19T06:12:34.407Z,11.20
2018-01-19T06:15:01.962Z,11.63
2018-01-19T06:17:29.520Z,11.67
2018-01-19T06:19:57.116Z,11.57
2018-01-19T06:22:24.709Z,11.10
2018-01-19T06:24:52.756Z,11.00
2018-01-19T06:27:20.289Z,11.00
2018-01-19T06:29:47.889Z,11.10
2018-01-19T06:32:15.533Z,11.03
2018-01-19T06:34:43.357Z,10.90
2018-01-19T06:37:10.949Z,11.63
2018-01-19T06:39:38.546Z,11.27
2018-01-19T06:42:06.132Z,11.90
2018-01-19T06:44:34.010Z,11.47
2018-01-19T06:47:01.613Z,12.23
2018-01-19T06:49:29.197Z,11.20
2018-01-19T06:51:57.112Z,11.30
2018-01-19T06:54:24.775Z,11.70
2018-01-19T06:56:52.360Z,11.37
2018-01-19T06:59:19.953Z,11.23
2018-01-19T07:01:47.584Z,11.40
2018-01-19T07:04:15.553Z,11.77
2018-01-19T07:06:43.191Z,10.60
2018-01-19T07:09:10.803Z,11.20
2018-01-19T07:11:38.393Z,12.27
2018-01-19T07:14:05.949Z,12.10
2018-01-19T07:16:33.555Z,11.70
2018-01-19T07:19:01.146Z,12.20
2018-01-19T07:21:28.695Z,11.97
2018-01-19T07:23:56.304Z,12.13
2018-01-19T07:26:23.883Z,11.83
2018-01-19T07:28:51.490Z,12.37
2018-01-19T07:31:19.088Z,12.13
2018-01-19T07:33:46.702Z,12.67
2018-01-19T07:36:14.337Z,11.87
2018-01-19T07:38:42.202Z,13.23
2018-01-19T07:41:09.872Z,11.93
2018-01-19T07:43:37.440Z,12.70
2018-01-19T07:46:05.045Z,12.20
2018-01-19T07:48:32.654Z,12.37
2018-01-19T07:51:00.214Z,12.03
2018-01-19T07:53:27.887Z,13.57
2018-01-19T07:55:55.500Z,12.70
2018-01-19T07:58:23.406Z,14.60
2018-01-19T08:00:51.011Z,12.90
2018-01-19T08:03:18.591Z,12.57
2018-01-19T08:05:46.187Z,12.93
2018-01-19T08:08:14.060Z,12.03
2018-01-19T08:10:41.647Z,12.60
2018-01-19T08:13:09.295Z,11.87
2018-01-19T08:15:36.932Z,13.90
2018-01-19T08:18:04.532Z,13.10
2018-01-19T08:20:32.371Z,12.67
2018-01-19T08:23:00.018Z,12.80
2018-01-19T08:25:27.571Z,12.60
2018-01-19T08:27:55.184Z,12.20
2018-01-19T08:30:22.817Z,13.13
2018-01-19T08:32:50.379Z,12.60
2018-01-19T08:35:17.966Z,11.90
2018-01-19T08:37:45.643Z,12.30
2018-01-19T08:40:13.248Z,12.50
2018-01-19T08:42:40.841Z,11.93
2018-01-19T08:45:08.460Z,11.93
2018-01-19T08:47:36.018Z,12.90
2018-01-19T08:50:03.747Z,13.20
2018-01-19T08:52:31.343Z,12.50
2018-01-19T08:54:58.941Z,13.00
2018-01-19T08:57:26.542Z,13.57
2018-01-19T08:59:54.165Z,12.50
2018-01-19T09:02:21.806Z,12.67
2018-01-19T09:04:49.482Z,12.20
2018-01-19T09:07:17.120Z,11.67
2018-01-19T09:09:44.702Z,12.60
2018-01-19T09:12:12.339Z,13.00
2018-01-19T09:14:39.960Z,12.80
2018-01-19T09:17:07.564Z,12.87
2018-01-19T09:19:35.148Z,12.53
2018-01-19T09:22:02.763Z,12.70
2018-01-19T09:24:30.321Z,13.30
2018-01-19T09:26:57.891Z,12.30
2018-01-19T09:29:25.513Z,13.00
2018-01-19T09:31:53.103Z,13.03
2018-01-19T09:34:20.681Z,13.60
2018-01-19T09:36:48.299Z,13.80
2018-01-19T09:39:15.904Z,13.53
2018-01-19T09:41:43.459Z,12.00
2018-01-19T09:44:11.085Z,12.90
2018-01-19T09:46:38.698Z,13.33
2018-01-19T09:49:06.622Z,13.60
2018-01-19T09:51:34.573Z,12.80
2018-01-19T09:54:02.153Z,13.47
2018-01-19T09:56:29.999Z,13.57
2018-01-19T09:58:57.636Z,13.50
2018-01-19T10:01:25.217Z,13.87
2018-01-19T10:03:52.815Z,13.93
2018-01-19T10:06:20.417Z,13.20
2018-01-19T10:08:47.989Z,13.30
2018-01-19T10:11:15.590Z,13.33
2018-01-19T10:13:43.216Z,13.90
2018-01-19T10:16:10.802Z,14.60
2018-01-19T10:18:38.669Z,14.50
2018-01-19T10:21:06.308Z,14.33
2018-01-19T10:23:34.188Z,14.63
2018-01-19T10:26:01.808Z,15.57
2018-01-19T10:28:29.421Z,15.03
2018-01-19T10:30:56.989Z,14.33
2018-01-19T10:33:24.593Z,14.27
2018-01-19T10:35:52.204Z,14.13
2018-01-19T10:38:19.776Z,14.40
2018-01-19T10:40:47.351Z,14.00
2018-01-19T10:43:14.985Z,14.77
2018-01-19T10:45:43.053Z,13.50
2018-01-19T10:48:10.608Z,14.33
2018-01-19T10:50:38.260Z,13.87
2018-01-19T10:53:05.844Z,15.07
2018-01-19T10:55:33.449Z,14.87
2018-01-19T10:58:01.072Z,15.77
2018-01-19T11:00:28.660Z,14.33
2018-01-19T11:02:56.249Z,14.47
2018-01-19T11:05:23.831Z,16.05
2018-01-19T11:07:51.439Z,14.17
2018-01-19T11:10:19.009Z,15.17
2018-01-19T11:12:46.609Z,15.40
2018-01-19T11:15:14.411Z,15.90
2018-01-19T11:17:41.982Z,16.07
2018-01-19T11:20:09.568Z,14.83
2018-01-19T11:22:37.167Z,15.53
2018-01-19T11:25:04.739Z,14.70
2018-01-19T11:27:32.350Z,14.27
2018-01-19T11:29:59.988Z,15.60
2018-01-19T11:32:27.539Z,17.40
2018-01-19T11:34:55.151Z,15.73
2018-01-19T11:37:22.763Z,16.70
2018-01-19T11:39:50.382Z,16.40
2018-01-19T11:42:17.987Z,16.20
2018-01-19T11:44:45.566Z,17.10
2018-01-19T11:47:13.125Z,17.50
2018-01-19T11:49:41.073Z,17.63
2018-01-19T11:52:08.629Z,17.63
2018-01-19T11:54:36.291Z,16.93
2018-01-19T11:57:03.897Z,18.30
2018-01-19T11:59:31.450Z,16.30
2018-01-19T12:01:59.301Z,17.23
2018-01-19T12:04:26.974Z,17.03
2018-01-19T12:06:54.655Z,17.33
2018-01-19T12:09:22.271Z,16.10
2018-01-19T12:11:49.897Z,17.77
2018-01-19T12:14:17.458Z,16.63
2018-01-19T12:16:45.045Z,15.87
2018-01-19T12:19:12.656Z,16.00
2018-01-19T12:21:40.225Z,15.93
2018-01-19T12:24:07.856Z,16.13
2018-01-19T12:26:35.508Z,15.70
2018-01-19T12:29:03.064Z,15.70
2018-01-19T12:31:30.643Z,15.47
2018-01-19T12:33:58.299Z,14.23
2018-01-19T12:36:25.860Z,15.67
2018-01-19T12:38:53.420Z,15.07
2018-01-19T12:41:21.061Z,15.90
2018-01-19T12:43:48.767Z,15.23
2018-01-19T12:46:16.371Z,15.17
2018-01-19T12:48:43.986Z,14.30
2018-01-19T12:51:11.597Z,16.00
2018-01-19T12:53:39.241Z,15.80
2018-01-19T12:56:06.877Z,15.50
2018-01-19T12:58:34.507Z,16.47
2018-01-19T13:01:02.090Z,16.30
2018-01-19T13:03:29.730Z,16.40
2018-01-19T13:05:57.596Z,16.77
2018-01-19T13:08:25.177Z,17.67
2018-01-19T13:10:52.837Z,16.73
2018-01-19T13:13:20.810Z,15.50
2018-01-19T13:15:48.478Z,16.60
2018-01-19T13:18:16.099Z,16.13
2018-01-19T13:20:43.759Z,15.20
2018-01-19T13:23:11.399Z,15.67
2018-01-19T13:25:39.103Z,15.13
2018-01-19T13:28:06.701Z,15.07
2018-01-19T13:30:34.536Z,15.23
2018-01-19T13:33:02.408Z,16.55
2018-01-19T13:35:30.182Z,16.17
2018-01-19T13:37:57.803Z,16.23
2018-01-19T13:40:25.432Z,16.90
2018-01-19T13:42:53.220Z,15.70
2018-01-19T13:45:20.848Z,16.20
2018-01-19T13:47:48.690Z,16.60
2018-01-19T13:50:16.250Z,15.97
2018-01-19T13:52:44.123Z,16.03
2018-01-19T13:55:11.742Z,16.10
2018-01-19T13:57:39.480Z,16.90
2018-01-19T14:00:07.076Z,15.77
2018-01-19T14:02:34.668Z,15.93
2018-01-19T14:05:02.223Z,17.23
2018-01-19T14:07:29.816Z,16.63
2018-01-19T14:09:57.400Z,17.37
2018-01-19T14:12:25.026Z,17.03
2018-01-19T14:14:52.618Z,16.17
2018-01-19T14:17:20.361Z,17.70
2018-01-19T14:19:48.052Z,18.03
2018-01-19T14:22:15.612Z,17.80
2018-01-19T14:24:43.261Z,17.30
2018-01-19T14:27:10.959Z,16.17
2018-01-19T14:29:38.591Z,16.97
2018-01-19T14:32:06.243Z,18.13
2018-01-19T14:34:33.807Z,16.43
2018-01-19T14:37:01.687Z,16.30
2018-01-19T14:39:29.338Z,17.30
2018-01-19T14:41:56.894Z,17.87
2018-01-19T14:44:24.511Z,16.70
2018-01-19T14:46:52.140Z,16.83
2018-01-19T14:49:19.744Z,14.60
2018-01-19T14:51:47.338Z,17.23
2018-01-19T14:54:15.006Z,14.10
2018-01-19T14:56:42.561Z,14.83
2018-01-19T14:59:10.419Z,15.20
2018-01-19T15:01:38.160Z,14.80
2018-01-19T15:04:05.749Z,13.63
2018-01-19T15:06:33.336Z,14.03
2018-01-19T15:09:00.994Z,15.20
2018-01-19T15:11:28.583Z,15.13
2018-01-19T15:13:56.156Z,13.87
2018-01-19T15:16:23.779Z,14.53
2018-01-19T15:18:51.721Z,14.90
2018-01-19T15:21:19.287Z,13.60
2018-01-19T15:23:46.934Z,13.33
2018-01-19T15:26:14.710Z,14.40
2018-01-19T15:28:42.372Z,14.00
2018-01-19T15:31:10.235Z,14.30
2018-01-19T15:33:37.814Z,13.60
2018-01-19T15:36:05.448Z,13.47
2018-01-19T15:38:33.084Z,13.90
2018-01-19T15:41:00.664Z,13.93
2018-01-19T15:43:28.359Z,13.33
2018-01-19T15:45:55.971Z,14.37
2018-01-19T15:48:23.886Z,13.80
2018-01-19T15:50:51.653Z,13.53
2018-01-19T15:53:19.261Z,14.57
2018-01-19T15:55:46.842Z,13.03
2018-01-19T15:58:14.420Z,13.67
2018-01-19T16:00:42.082Z,13.80
2018-01-19T16:03:09.956Z,13.53
2018-01-19T16:05:37.564Z,12.07
2018-01-19T16:08:05.192Z,12.77
2018-01-19T16:10:32.813Z,13.70
2018-01-19T16:13:00.383Z,13.00
2018-01-19T16:15:28.030Z,13.47
2018-01-19T16:17:55.609Z,13.83
2018-01-19T16:20:23.261Z,12.90
2018-01-19T16:22:50.876Z,13.60
2018-01-19T16:25:18.450Z,12.80
2018-01-19T16:27:46.060Z,12.10
2018-01-19T16:30:13.947Z,12.60
2018-01-19T16:32:41.559Z,11.60
2018-01-19T16:35:09.116Z,11.33
2018-01-19T16:37:37.038Z,11.50
2018-01-19T16:40:04.619Z,12.43
2018-01-19T16:42:32.175Z,12.53
2018-01-19T16:44:59.778Z,13.67
2018-01-19T16:47:27.441Z,12.93
2018-01-19T16:49:55.030Z,12.83
2018-01-19T16:52:22.623Z,11.97
2018-01-19T16:54:50.204Z,13.40
2018-01-19T16:57:17.788Z,13.33
2018-01-19T16:59:45.399Z,12.27
2018-01-19T17:02:12.969Z,12.40
2018-01-19T17:04:40.548Z,12.40
2018-01-19T17:07:08.149Z,12.93
2018-01-19T17:09:35.696Z,13.53
2018-01-19T17:12:03.286Z,13.70
2018-01-19T17:14:30.883Z,13.30
2018-01-19T17:16:58.439Z,13.90
2018-01-19T17:19:26.106Z,14.00
2018-01-19T17:21:53.779Z,14.30
2018-01-19T17:24:21.335Z,14.10
2018-01-19T17:26:48.928Z,13.63
2018-01-19T17:29:17.075Z,14.83
2018-01-19T17:31:44.680Z,15.03
2018-01-19T17:34:12.265Z,14.10
2018-01-19T17:36:39.892Z,13.47
2018-01-19T17:39:07.506Z,13.77
2018-01-19T17:41:35.167Z,16.30
2018-01-19T17:44:02.939Z,14.33
2018-01-19T17:46:30.617Z,15.40
2018-01-19T17:48:58.184Z,14.20
2018-01-19T17:51:25.835Z,14.77
2018-01-19T17:53:53.529Z,15.20
2018-01-19T17:56:21.151Z,15.33
2018-01-19T17:58:49.141Z,14.20
2018-01-19T18:01:16.708Z,15.80
2018-01-19T18:03:44.325Z,17.20
2018-01-19T18:06:11.921Z,14.67
2018-01-19T18:08:39.517Z,14.00
2018-01-19T18:11:07.206Z,12.20
2018-01-19T18:13:35.102Z,12.93
2018-01-19T18:16:03.090Z,12.40
2018-01-19T18:18:30.871Z,13.20
2018-01-19T18:20:58.490Z,12.40
2018-01-19T18:23:26.090Z,12.90
2018-01-19T18:25:53.790Z,12.07
2018-01-19T18:28:21.481Z,12.23
2018-01-19T18:30:49.226Z,13.30
2018-01-19T18:33:17.104Z,14.70
2018-01-19T18:35:44.748Z,13.20
2018-01-19T18:38:12.357Z,13.83
2018-01-19T18:40:39.969Z,15.10
2018-01-19T18:43:07.574Z,13.53
2018-01-19T18:45:35.186Z,15.00
2018-01-19T18:48:02.796Z,14.13
2018-01-19T18:50:30.428Z,16.40
2018-01-19T18:52:58.128Z,15.93
2018-01-19T18:55:25.730Z,15.03
2018-01-19T18:57:53.544Z,14.77
2018-01-19T19:00:21.115Z,14.70
2018-01-19T19:02:48.672Z,15.30
2018-01-19T19:05:16.282Z,14.80
2018-01-19T19:07:43.829Z,14.90
2018-01-19T19:10:11.448Z,15.70
2018-01-19T19:12:39.022Z,15.87
2018-01-19T19:15:06.655Z,15.10
2018-01-19T19:17:34.222Z,14.07
2018-01-19T19:20:01.866Z,15.10
2018-01-19T19:22:29.449Z,15.23
2018-01-19T19:24:57.008Z,15.70
2018-01-19T19:27:24.651Z,16.37
2018-01-19T19:29:52.243Z,16.10
2018-01-19T19:32:19.873Z,15.40
2018-01-19T19:34:48.081Z,16.60
2018-01-19T19:37:15.649Z,19.80
2018-01-19T19:39:43.305Z,18.70
2018-01-19T19:42:10.891Z,18.77
2018-01-19T19:44:38.534Z,17.37
2018-01-19T19:47:06.083Z,18.77
2018-01-19T19:49:34.565Z,17.50
2018-01-19T19:52:02.152Z,19.10
2018-01-19T19:54:29.710Z,17.93
2018-01-19T19:56:57.656Z,18.33
2018-01-19T19:59:25.699Z,20.73
2018-01-19T20:01:53.624Z,19.27
2018-01-19T20:04:21.587Z,18.70
2018-01-19T20:06:49.197Z,19.70
2018-01-19T20:09:16.817Z,20.73
2018-01-19T20:11:44.467Z,19.47
2018-01-19T20:14:12.035Z,19.90
2018-01-19T20:16:39.635Z,21.20
2018-01-19T20:19:07.220Z,19.47
2018-01-19T20:21:34.798Z,19.47
2018-01-19T20:24:02.367Z,20.53
2018-01-19T20:26:30.039Z,21.33
2018-01-19T20:28:57.595Z,21.23
2018-01-19T20:31:25.148Z,20.97
2018-01-19T20:33:52.750Z,20.63
2018-01-19T20:36:20.335Z,22.70
2018-01-19T20:38:47.892Z,21.40
2018-01-19T20:41:15.549Z,22.30
2018-01-19T20:43:43.226Z,22.23
2018-01-19T20:46:10.916Z,22.70
2018-01-19T20:48:38.540Z,22.10
2018-01-19T20:51:06.444Z,22.33
2018-01-19T20:53:34.045Z,23.40
2018-01-19T20:56:01.635Z,21.87
2018-01-19T20:58:29.219Z,22.80
2018-01-19T21:00:56.794Z,21.80
2018-01-19T21:03:24.436Z,21.00
2018-01-19T21:05:52.121Z,23.07
2018-01-19T21:08:19.697Z,23.57
2018-01-19T21:10:47.309Z,22.37
2018-01-19T21:13:14.971Z,22.07
2018-01-19T21:15:42.825Z,22.70
2018-01-19T21:18:10.469Z,22.00
2018-01-19T21:20:38.050Z,21.77
2018-01-19T21:23:05.858Z,21.47
2018-01-19T21:25:33.515Z,22.80
2018-01-19T21:28:01.170Z,22.67
2018-01-19T21:30:28.839Z,21.10
2018-01-19T21:32:56.449Z,21.60
2018-01-19T21:35:24.037Z,22.57
2018-01-19T21:37:51.962Z,22.77
2018-01-19T21:40:19.544Z,23.43
2018-01-19T21:42:47.101Z,23.90
2018-01-19T21:45:14.655Z,22.33
2018-01-19T21:47:42.248Z,22.83
2018-01-19T21:50:09.820Z,22.50
2018-01-19T21:52:37.677Z,23.43
2018-01-19T21:55:05.336Z,23.47
2018-01-19T21:57:32.900Z,22.37
2018-01-19T22:00:00.481Z,23.93
2018-01-19T22:02:28.090Z,22.90
2018-01-19T22:04:55.637Z,21.90
2018-01-19T22:07:23.176Z,22.23
2018-01-19T22:09:50.827Z,22.40
2018-01-19T22:12:18.421Z,21.77
2018-01-19T22:14:46.271Z,23.03
2018-01-19T22:17:14.244Z,22.37
2018-01-19T22:19:41.828Z,24.70
2018-01-19T22:22:09.381Z,20.20
2018-01-19T22:24:36.973Z,21.63
2018-01-19T22:27:05.013Z,21.27
2018-01-19T22:29:32.570Z,22.10
2018-01-19T22:32:00.161Z,21.87
2018-01-19T22:34:27.758Z,23.30
2018-01-19T22:36:55.411Z,22.03
2018-01-19T22:39:22.982Z,22.50
2018-01-19T22:41:50.598Z,20.80
2018-01-19T22:44:18.170Z,21.03
2018-01-19T22:46:45.817Z,21.37
2018-01-19T22:49:13.406Z,21.10
2018-01-19T22:51:41.013Z,22.53
2018-01-19T22:54:08.709Z,22.20
2018-01-19T22:56:36.260Z,20.77
2018-01-19T22:59:04.067Z,21.67
2018-01-19T23:01:31.749Z,23.37
2018-01-19T23:03:59.319Z,22.23
2018-01-19T23:06:26.904Z,22.10
2018-01-19T23:08:54.770Z,23.13
2018-01-19T23:11:22.343Z,21.77
2018-01-19T23:13:49.912Z,21.10
2018-01-19T23:16:17.506Z,20.87
2018-01-19T23:18:45.109Z,21.50
2018-01-19T23:21:12.676Z,21.77
2018-01-19T23:23:40.288Z,20.20
2018-01-19T23:26:08.197Z,20.93
2018-01-19T23:28:35.748Z,21.20
2018-01-19T23:31:03.333Z,21.27
2018-01-19T23:33:30.928Z,20.60
2018-01-19T23:35:58.510Z,20.20
2018-01-19T23:38:26.173Z,19.20
2018-01-19T23:40:53.767Z,20.80
2018-01-19T23:43:21.323Z,20.20
2018-01-19T23:45:48.978Z,19.53
2018-01-19T23:48:16.543Z,20.63
2018-01-19T23:50:44.144Z,21.50
2018-01-19T23:53:11.763Z,20.23
2018-01-19T23:55:39.640Z,20.53
2018-01-19T23:58:07.186Z,20.63
